Keg River, Canada
Current Conditions -  °F | °C
As of 11:00 AM on Wednesday 26 Nov 2014 (Local Time) from CYOJ Reporting Station
Light Snow Light Snow  
Wind Chill: -6°   Ceiling: 2300
Heat Index:   Visibility: 8mi
Dew Point:   Wind: 6mph
Humidity: 85%   Direction: 340°NNW
Pressure: 30.21"   Gusts: NA
Location:  57.8°N, 117.87°W
Report Text: CYOJ 261800Z 34005KT 8SM -SN FEW017 OVC023 M15/M17 A3021 RMK SC2SC6 SLP269
Loading
Personal Weather Stations






























Interactive Weather Map New forecast layout! Learn more

10-Day Weather Forecast

Advertisements
Track Severe Weather on mobile